TimeMST,TemperatureF,Dew PointF,Humidity,Sea Level PressureIn,VisibilityMPH,Wind Direction,Wind SpeedMPH,Gust SpeedMPH,PrecipitationIn,Events,Conditions,WindDirDegrees,DateUTC
5:00 AM,16,-1,31,29.90,15,NW,6.9,,,,Mostly Cloudy,320,2011-11-15 12:00:00
5:00 AM,15.8,-0.4,49,29.90,15.0,NW,6.9,-,N/A,,Mostly Cloudy,310,2011-11-15 12:00:00
6:00 AM,10.4,-2.2,57,29.91,15.0,NNW,4.6,-,N/A,,Overcast,340,2011-11-15 13:00:00
7:00 AM,12.2,-2.2,53,29.93,15.0,NNW,3.5,-,N/A,,Partly Cloudy,330,2011-11-15 14:00:00
8:00 AM,12.2,-0.4,57,29.96,30.0,NNW,3.5,-,N/A,,Mostly Cloudy,330,2011-11-15 15:00:00
8:56 AM,-9999,-9999,N/A,-9999,30.0,NW,6.9,-,N/A,,Overcast,320,2011-11-15 15:56:00
9:00 AM,17.6,5.0,58,29.99,30.0,NW,10.4,-,N/A,,Overcast,310,2011-11-15 16:00:00
10:00 AM,21.2,8.6,58,30.01,30.0,North,9.2,-,N/A,,Overcast,360,2011-11-15 17:00:00
11:00 AM,22,10,46,30.04,28,NNW,10.4,,,,Overcast,340,2011-11-15 18:00:00
11:00 AM,21.2,10.4,63,30.04,30.0,North,9.2,-,N/A,,Overcast,350,2011-11-15 18:00:00
11:33 AM,-9999,-9999,N/A,-9999,9.0,North,12.7,-,N/A,,Overcast,360,2011-11-15 18:33:00
12:31 PM,-9999,-9999,N/A,-9999,6.0,North,12.7,-,N/A,,Unknown,360,2011-11-15 19:31:00
12:36 PM,-9999,-9999,N/A,-9999,6.0,NNW,9.2,-,N/A,,Unknown,340,2011-11-15 19:36:00
1:19 PM,-9999,-9999,N/A,-9999,15.0,North,5.8,-,N/A,,Unknown,350,2011-11-15 20:19:00
3:00 PM,17.6,14.0,86,30.12,15.0,WSW,8.1,-,N/A,Snow,Light Snow,240,2011-11-15 22:00:00
3:32 PM,-9999,-9999,N/A,-9999,20.0,WSW,4.6,-,N/A,,Unknown,250,2011-11-15 22:32:00
4:00 PM,21.2,15.8,80,30.14,20.0,West,3.5,-,N/A,,Mostly Cloudy,270,2011-11-15 23:00:00
5:00 PM,13,8,73,30.14,19,WSW,6.9,,,,Partly Cloudy,240,2011-11-16 00:00:00
5:00 PM,14.0,8.6,79,30.14,20.0,WSW,5.8,-,N/A,,Scattered Clouds,250,2011-11-16 00:00:00
6:00 PM,14.0,8.6,79,30.15,15.0,SW,5.8,-,N/A,,Partly Cloudy,220,2011-11-16 01:00:00
7:00 PM,15.8,10.4,79,30.15,15.0,South,3.5,-,N/A,,Partly Cloudy,180,2011-11-16 02:00:00
8:00 PM,12.2,6.8,79,30.17,15.0,Calm,Calm,-,N/A,,Partly Cloudy,0,2011-11-16 03:00:00
9:00 PM,10.4,6.8,85,30.17,15.0,NNW,3.5,-,N/A,,Clear,340,2011-11-16 04:00:00